Aérodrome :
LOGIN :

S'inscrire | Disclaimer

   EN    FR    IT 

 










Légende :    VFR   VFR Marginal   IFR   IFR Intensif   IFR Très Intensif
Visi : 
Plafond : 
>= 8 km
>= 3000ft
5 à 8 km
1000 à 3000 ft
1500m à 5 km
500 à 1000 ft
800 à 1500m
200 à 500 ft
< 800m
< 200 ft
Symboles :   Orages  Brouillard  Fortes neiges  Fortes précipitations  Vent > 20 kt
SIGMETs :   Divers  Orages  Givrage  Turbulence  Onde Orograph.  Cendres Volcan.







- Altitude de l'aérodrome : 485 ft
- Code IATA : QSA


LELL - Sabadell

DERNIER METAR :
  • 222200Z AUTO VRB02KT CAVOK 04/00 Q1006

METARs EXPIRÉS :
  • 222130Z AUTO 28004KT CAVOK 04/M00 Q1006
  • 222100Z AUTO 33004KT 290V020 CAVOK 06/00 Q1006
  • 222030Z AUTO 33005KT 300V010 CAVOK 06/M00 Q1006
  • 222000Z AUTO 31003KT 270V010 CAVOK 07/02 Q1006
  • 221930Z AUTO 28003KT 240V310 CAVOK 07/02 Q1006

TAF TAF LELL
Valide du 22 à 15h jusqu'au 23 à 15h UTC


221400Z 2215/2315 VRB04KT 9999 FEW030 TX11/2313Z TN02/2307Z
TEMPO 2215/2218 27010KT
TEMPO 2306/2310 28010KT
PROB30
TEMPO 2307/2312 RA BKN025
Pas de NOTAMs connus pour ce terrain.



MET'MAP, la Météo Aéronautique d'un coup d'oeil ! - Copyright ORBIFLY Décembre 2007 - Disclaimer

ORBIFLY MET'MAP TEAM :

Programmation & Développement : Alexandra Zaïnal
Conception & Développement : Baudouin d'Aumeries
Co-Programmation & Développement : Marc-Olivier Méhu
Soutien technique & logistique : Manuel Goepfert

Contact : metmap@orbifly.com




SOURCES & CREDITS :

   NOAA